Time;durP1;ratioP1;P1;durP2;ratioP2;P2;SDS_P1;SDS_P2;PMS_P1;PMS_P2;Temp;Humidity;BMP_temperature;BMP_pressure;BME280_temperature;BME280_humidity;BME280_pressure;Samples;Min_cycle;Max_cycle;Signal;HPM_P1;HPM_P2
2023/03/06 00:00:56;;;;;;;24.90;9.30;;;3.50;99.90;;;3.39;76.58;98575.06;4997814;28;20232;-78
2023/03/06 00:03:26;;;;;;;33.83;10.32;;;3.40;99.90;;;3.45;76.42;98567.25;4986181;28;20241;-79
2023/03/06 00:05:56;;;;;;;20.42;5.85;;;3.50;99.90;;;3.42;76.22;98551.56;4982623;28;20255;-79
2023/03/06 00:08:25;;;;;;;21.30;13.90;;;3.50;99.90;;;3.38;76.54;98558.50;4999601;28;20744;-78
2023/03/06 00:10:53;;;;;;;24.75;17.65;;;3.40;99.90;;;3.24;77.20;98572.31;4988332;28;20288;-79
2023/03/06 00:13:20;;;;;;;27.08;23.30;;;3.40;99.90;;;3.21;77.74;98597.56;4995076;28;20243;-78
2023/03/06 00:15:48;;;;;;;29.00;10.18;;;3.30;99.90;;;3.25;77.62;98600.19;4994749;28;20224;-78
2023/03/06 00:18:15;;;;;;;25.45;8.40;;;3.30;99.90;;;3.26;77.46;98596.72;4983839;28;20228;-79
2023/03/06 00:20:43;;;;;;;30.73;27.42;;;3.30;99.90;;;3.26;77.34;98592.38;4979687;28;20245;-79
2023/03/06 00:23:11;;;;;;;22.25;6.85;;;3.30;99.90;;;3.35;77.19;98583.72;4991833;28;20243;-78
2023/03/06 00:25:44;;;;;;;36.25;10.38;;;3.40;99.90;;;3.33;77.23;98590.69;4988931;28;20240;-78
2023/03/06 00:28:14;;;;;;;37.13;33.22;;;3.30;99.90;;;3.41;76.44;98550.69;4992612;28;20236;-78
2023/03/06 00:30:44;;;;;;;39.15;11.18;;;3.40;99.90;;;3.42;76.59;98538.50;4986599;28;20319;-77
2023/03/06 00:33:12;;;;;;;21.27;5.38;;;3.50;99.90;;;3.48;76.06;98535.94;4993904;28;20240;-78
2023/03/06 00:35:40;;;;;;;28.52;6.15;;;3.50;99.90;;;3.74;75.39;98544.81;4992070;28;20318;-77
2023/03/06 00:38:10;;;;;;;25.33;10.27;;;3.60;99.90;;;3.74;74.70;98489.03;4990913;28;20232;-77
2023/03/06 00:40:37;;;;;;;25.00;5.68;;;3.80;99.90;;;3.61;74.80;98475.03;4993121;28;20244;-77
2023/03/06 00:43:04;;;;;;;21.25;4.97;;;3.70;99.90;;;3.91;74.28;98476.06;4989128;28;20247;-79
2023/03/06 00:45:31;;;;;;;23.65;5.55;;;3.90;99.90;;;3.98;73.51;98442.13;4994517;28;20240;-77
2023/03/06 00:47:58;;;;;;;26.20;5.57;;;4.00;99.90;;;3.99;73.19;98422.06;4995427;28;20335;-78
2023/03/06 00:50:26;;;;;;;18.88;6.20;;;4.00;99.90;;;3.94;73.10;98406.38;4984174;28;20248;-78
2023/03/06 00:52:53;;;;;;;37.95;24.65;;;4.00;99.90;;;3.97;73.26;98410.72;4990651;28;20250;-78
2023/03/06 00:55:20;;;;;;;14.80;3.40;;;4.00;99.90;;;3.88;73.32;98401.09;4991198;28;20232;-78
2023/03/06 00:57:47;;;;;;;25.17;6.13;;;3.90;99.90;;;3.92;73.17;98415.94;4986781;28;20271;-80
2023/03/06 01:00:15;;;;;;;17.30;4.20;;;4.00;99.90;;;3.88;73.63;98414.16;4987471;28;20236;-79
2023/03/06 01:02:43;;;;;;;23.83;6.75;;;3.90;99.90;;;3.88;73.38;98413.28;4988300;28;20220;-80
2023/03/06 01:05:13;;;;;;;27.27;7.07;;;3.90;99.90;;;3.85;73.78;98409.78;4996494;28;20290;-80
2023/03/06 01:07:40;;;;;;;25.67;7.22;;;3.90;99.90;;;3.86;73.53;98406.31;4982259;28;20303;-78
2023/03/06 01:10:08;;;;;;;18.70;5.05;;;3.90;99.90;;;4.02;73.17;98398.53;4990744;28;20240;-77
2023/03/06 01:12:35;;;;;;;27.05;5.78;;;4.00;99.90;;;3.91;73.36;98382.81;4988080;28;20290;-78
2023/03/06 01:15:03;;;;;;;19.38;7.05;;;4.10;99.90;;;3.85;73.59;98393.22;4991138;28;20240;-78
2023/03/06 01:17:31;;;;;;;15.68;6.20;;;3.90;99.90;;;3.90;73.36;98388.00;4991134;28;20307;-78
2023/03/06 01:19:58;;;;;;;22.98;7.00;;;3.90;99.90;;;3.84;73.74;98387.13;4991922;28;20232;-78
2023/03/06 01:22:25;;;;;;;14.80;3.35;;;3.90;99.90;;;3.84;73.86;98396.72;4994206;28;20235;-77
2023/03/06 01:24:52;;;;;;;24.70;6.25;;;3.90;99.90;;;3.79;73.85;98394.09;4991845;28;20256;-79
2023/03/06 01:27:19;;;;;;;16.55;10.63;;;3.90;99.90;;;3.71;74.29;98408.00;4987867;28;20246;-78
2023/03/06 01:29:46;;;;;;;73.00;66.38;;;3.80;99.90;;;3.70;74.52;98407.13;4994418;28;20317;-78
2023/03/06 01:32:13;;;;;;;27.38;17.63;;;3.80;99.90;;;3.72;74.51;98399.28;4991646;28;20241;-78
2023/03/06 01:34:40;;;;;;;24.42;13.98;;;3.90;99.90;;;3.69;74.80;98404.50;4992050;28;20247;-78
2023/03/06 01:37:07;;;;;;;15.43;3.70;;;3.80;99.90;;;3.67;74.79;98408.84;4982583;28;20232;-78
2023/03/06 01:39:34;;;;;;;26.83;5.78;;;3.80;99.90;;;3.68;74.70;98405.38;4987741;28;20298;-80
2023/03/06 01:42:01;;;;;;;19.73;5.00;;;3.70;99.90;;;3.69;74.74;98402.75;4990472;28;20243;-79
2023/03/06 01:44:28;;;;;;;18.33;4.00;;;3.70;99.90;;;3.78;74.43;98415.00;4993794;28;20709;-80
2023/03/06 01:46:56;;;;;;;22.30;5.70;;;3.80;99.90;;;3.76;74.34;98380.13;4988644;28;20229;-79
2023/03/06 01:49:38;;;;;;;20.33;4.72;;;3.80;99.90;;;3.73;74.29;98375.78;4992483;28;20294;-79
2023/03/06 01:52:14;;;;;;;22.48;5.45;;;3.80;99.90;;;3.71;74.43;98382.72;4975893;28;20236;-79
2023/03/06 01:54:48;;;;;;;26.60;5.95;;;3.80;99.90;;;3.74;74.36;98372.28;4991991;28;20232;-79
2023/03/06 01:57:23;;;;;;;16.17;3.53;;;3.80;99.90;;;3.77;74.13;98374.03;4987382;28;20252;-78
2023/03/06 02:00:17;;;;;;;28.70;10.80;;;3.80;99.90;;;3.81;73.88;98362.72;4989813;28;20232;-78
2023/03/06 02:02:53;;;;;;;18.98;4.38;;;3.80;99.90;;;3.81;73.83;98360.09;4987129;28;20240;-79
2023/03/06 02:05:21;;;;;;;27.85;7.63;;;3.90;99.90;;;3.83;73.68;98343.56;4982835;28;20236;-78
2023/03/06 02:07:50;;;;;;;26.02;6.40;;;3.90;99.90;;;3.84;73.72;98336.59;4991672;28;20232;-80
2023/03/06 02:10:18;;;;;;;24.92;6.82;;;3.90;99.90;;;3.80;73.61;98329.59;4986737;28;20323;-79
2023/03/06 02:12:47;;;;;;;31.85;6.93;;;3.80;99.90;;;3.76;73.77;98335.69;4987788;28;20228;-79
2023/03/06 02:15:34;;;;;;;20.60;4.55;;;3.80;99.90;;;3.75;73.92;98341.78;4986417;28;20652;-79
2023/03/06 02:18:01;;;;;;;30.05;6.10;;;3.80;99.90;;;3.65;74.49;98343.50;4986105;28;20240;-79
2023/03/06 02:20:39;;;;;;;24.90;5.35;;;3.90;99.90;;;3.39;75.79;98387.81;4987714;28;20228;-83
2023/03/06 02:23:46;;;;;;;26.27;5.85;;;3.50;99.90;;;3.24;77.38;98457.41;4990614;28;20252;-80
2023/03/06 02:26:14;;;;;;;27.95;6.00;;;3.40;99.90;;;3.13;78.54;98488.66;4982244;28;20232;-78
2023/03/06 02:28:41;;;;;;;22.90;4.93;;;3.30;99.90;;;3.08;79.27;98512.13;4988506;28;20241;-79
2023/03/06 02:31:27;;;;;;;19.42;4.38;;;3.20;99.90;;;2.94;80.25;98533.78;4988916;28;20255;-78
2023/03/06 02:34:12;;;;;;;30.40;6.72;;;3.10;99.90;;;2.96;80.79;98559.03;4988589;28;20298;-79
2023/03/06 02:36:47;;;;;;;18.27;3.95;;;2.90;99.90;;;2.94;81.42;98584.25;4991840;28;20688;-78
2023/03/06 02:39:17;;;;;;;23.52;4.97;;;3.00;99.90;;;2.85;82.11;98589.38;4975585;28;20297;-78
2023/03/06 02:41:44;;;;;;;20.77;5.03;;;3.00;99.90;;;2.80;82.67;98597.16;4991270;28;20240;-78
2023/03/06 02:44:11;;;;;;;24.42;5.35;;;3.00;99.90;;;2.75;83.12;98624.94;5013856;28;20290;-78
2023/03/06 02:46:38;;;;;;;32.55;6.72;;;2.90;99.90;;;2.74;83.77;98627.53;4987988;28;20240;-78
2023/03/06 02:49:05;;;;;;;19.83;4.65;;;2.80;99.90;;;2.71;84.43;98644.03;4995902;28;20323;-78
2023/03/06 02:51:33;;;;;;;16.15;3.63;;;2.80;99.90;;;2.64;84.53;98651.78;4983443;28;20247;-78
2023/03/06 02:54:00;;;;;;;24.98;6.00;;;2.80;99.90;;;2.46;85.44;98655.88;4992856;28;20236;-78
2023/03/06 02:56:27;;;;;;;23.00;5.25;;;2.80;99.90;;;2.63;85.60;98679.59;4993101;28;20235;-78
2023/03/06 02:58:54;;;;;;;22.70;5.53;;;2.80;99.90;;;2.56;85.73;98677.75;4988317;28;20244;-78
2023/03/06 03:01:21;;;;;;;22.05;6.70;;;3.20;99.90;;;2.52;86.08;98686.41;4989535;28;20259;-79
2023/03/06 03:03:49;;;;;;;25.17;6.22;;;2.60;99.90;;;2.57;86.70;98695.16;4990913;28;20238;-79
2023/03/06 03:06:16;;;;;;;27.13;16.10;;;2.70;99.90;;;2.53;86.76;98695.97;4989255;28;20263;-78
2023/03/06 03:08:43;;;;;;;19.88;4.60;;;2.80;99.90;;;2.52;87.05;98708.13;4992516;28;20290;-78
2023/03/06 03:11:11;;;;;;;14.20;3.17;;;3.00;99.90;;;2.48;87.52;98706.34;4991779;28;20324;-78
2023/03/06 03:13:38;;;;;;;23.35;5.43;;;2.60;99.90;;;2.45;87.74;98724.56;4991206;28;20284;-78
2023/03/06 03:16:15;;;;;;;26.55;11.65;;;2.50;99.90;;;2.44;88.11;98716.72;4991981;28;20263;-78
2023/03/06 03:18:43;;;;;;;22.80;9.13;;;2.70;99.90;;;2.56;87.91;98720.38;4989727;28;20232;-78
2023/03/06 03:21:13;;;;;;;15.25;5.15;;;2.60;99.90;;;2.54;87.72;98716.00;4983608;28;20243;-78
2023/03/06 03:23:40;;;;;;;22.00;6.15;;;2.60;99.90;;;2.47;88.25;98733.28;4991977;28;20659;-78
2023/03/06 03:26:11;;;;;;;18.13;5.25;;;2.60;99.90;;;2.52;88.56;98734.22;4996061;28;20240;-78
2023/03/06 03:28:38;;;;;;;24.50;10.45;;;2.60;99.90;;;2.64;88.13;98738.78;4988981;28;20247;-78
2023/03/06 03:31:08;;;;;;;23.73;6.32;;;2.70;99.90;;;2.73;87.49;98733.66;4989911;28;20248;-78
2023/03/06 03:33:35;;;;;;;19.33;10.23;;;2.80;99.90;;;2.75;87.39;98734.56;4991524;28;20267;-78
2023/03/06 03:36:05;;;;;;;18.00;4.20;;;2.80;99.90;;;3.04;85.90;98732.31;4990741;28;20236;-78
2023/03/06 03:38:33;;;;;;;33.58;16.83;;;3.00;99.90;;;3.35;84.29;98736.13;4989237;28;20259;-78
2023/03/06 03:41:01;;;;;;;25.92;10.75;;;3.30;99.90;;;3.47;83.09;98699.69;4992734;28;20263;-78
2023/03/06 03:43:28;;;;;;;20.08;5.60;;;3.50;99.90;;;3.44;82.17;98670.91;4996658;28;20268;-80
2023/03/06 03:45:55;;;;;;;24.80;7.63;;;3.50;99.90;;;3.52;81.42;98645.72;4991670;28;20267;-79
2023/03/06 03:48:22;;;;;;;19.02;5.03;;;3.50;99.90;;;3.56;80.98;98625.72;4989503;28;20260;-80
2023/03/06 03:50:49;;;;;;;30.92;15.05;;;3.50;99.90;;;3.56;80.41;98601.31;4993363;28;20712;-80
2023/03/06 03:53:16;;;;;;;23.05;7.63;;;3.70;99.90;;;3.56;79.84;98583.03;5003953;28;20233;-79
2023/03/06 03:55:47;;;;;;;22.85;8.35;;;3.60;99.90;;;3.62;79.48;98581.31;4988343;28;20387;-79
2023/03/06 03:58:14;;;;;;;21.02;7.68;;;3.80;99.90;;;3.58;79.45;98563.00;4983114;28;20274;-80
2023/03/06 04:00:41;;;;;;;34.20;22.20;;;3.60;99.90;;;3.55;79.45;98550.78;4983800;28;20278;-79
2023/03/06 04:03:08;;;;;;;23.75;13.80;;;3.60;99.90;;;3.54;79.65;98549.03;4973845;28;20264;-79
2023/03/06 04:05:35;;;;;;;16.23;4.45;;;3.60;99.90;;;3.50;79.80;98552.50;4992073;28;20287;-79
2023/03/06 04:08:03;;;;;;;26.77;5.50;;;3.60;99.90;;;3.51;79.79;98549.03;4993241;28;20244;-79
2023/03/06 04:10:30;;;;;;;17.40;3.92;;;3.50;99.90;;;3.57;79.75;98558.63;4990189;28;20255;-78
2023/03/06 04:12:57;;;;;;;22.00;5.05;;;3.60;99.90;;;3.48;79.89;98564.69;4990886;28;20232;-78
2023/03/06 04:15:25;;;;;;;44.35;40.17;;;3.60;99.90;;;3.48;79.98;98567.28;5001685;28;20236;-78
2023/03/06 04:17:52;;;;;;;40.45;9.70;;;3.70;99.90;;;3.39;80.24;98562.88;4985150;28;20252;-79
2023/03/06 04:20:19;;;;;;;20.35;4.97;;;3.60;99.90;;;3.34;80.50;98568.91;4985866;28;20237;-78
2023/03/06 04:22:46;;;;;;;26.85;9.40;;;3.40;99.90;;;3.31;80.68;98577.59;4986714;28;20341;-79
2023/03/06 04:25:13;;;;;;;17.08;5.30;;;3.40;99.90;;;3.29;81.02;98588.91;4993345;28;20248;-79
2023/03/06 04:27:40;;;;;;;27.13;8.73;;;3.30;99.90;;;3.21;81.32;98592.34;4992937;28;20646;-80
2023/03/06 04:30:08;;;;;;;63.83;57.95;;;3.50;99.90;;;3.24;81.72;98608.88;4991188;28;20240;-79
2023/03/06 04:32:35;;;;;;;28.35;16.38;;;3.30;99.90;;;3.31;81.70;98610.69;4985621;28;20298;-80
2023/03/06 04:35:03;;;;;;;23.15;9.45;;;3.50;99.90;;;3.32;82.01;98620.28;4986800;28;20752;-79
2023/03/06 04:37:30;;;;;;;29.08;18.08;;;3.40;99.90;;;3.32;81.94;98618.53;4982254;28;20237;-78
2023/03/06 04:39:57;;;;;;;24.58;5.90;;;3.40;99.90;;;3.27;82.05;98617.63;4989909;28;20310;-78
2023/03/06 04:42:24;;;;;;;17.58;7.57;;;3.30;99.90;;;3.20;82.36;98627.16;4992833;28;20617;-78
2023/03/06 04:44:51;;;;;;;38.10;29.77;;;3.30;99.90;;;3.17;82.48;98626.25;4978261;28;20245;-78
2023/03/06 04:47:19;;;;;;;38.45;14.65;;;3.30;99.90;;;3.20;82.62;98631.50;4987358;28;20751;-78
2023/03/06 04:49:46;;;;;;;29.33;14.13;;;3.30;99.90;;;3.24;82.86;98621.94;4986694;28;20240;-79
2023/03/06 04:52:13;;;;;;;21.02;5.45;;;3.20;99.90;;;3.20;82.71;98629.75;4991778;28;20264;-79
2023/03/06 04:54:40;;;;;;;26.30;11.48;;;3.40;99.90;;;3.11;83.34;98634.91;4993112;28;20649;-79
2023/03/06 04:57:07;;;;;;;25.08;5.30;;;3.30;99.90;;;3.18;83.73;98660.22;4992050;28;20279;-78
2023/03/06 04:59:34;;;;;;;27.70;8.05;;;3.20;99.90;;;3.15;83.84;98660.19;4988443;28;20312;-77
2023/03/06 05:02:04;;;;;;;22.88;5.32;;;3.30;99.90;;;3.11;83.64;98653.19;4990360;28;20236;-81
2023/03/06 05:04:31;;;;;;;30.95;9.93;;;3.20;99.90;;;3.06;84.00;98660.09;4990892;28;20240;-79
2023/03/06 05:06:58;;;;;;;21.03;6.53;;;3.10;99.90;;;3.19;84.80;98677.63;4989963;28;20448;-77
2023/03/06 05:09:25;;;;;;;32.15;18.17;;;3.20;99.90;;;3.10;84.62;98682.75;4991127;28;20256;-78
2023/03/06 05:11:52;;;;;;;25.58;5.68;;;3.40;99.90;;;3.00;85.03;98695.69;4990663;28;20232;-80
2023/03/06 05:14:20;;;;;;;27.38;7.43;;;3.30;99.90;;;3.01;85.12;98690.50;4992921;28;20232;-77
2023/03/06 05:16:47;;;;;;;30.95;10.18;;;3.30;99.90;;;3.05;85.04;98696.63;4989479;28;20232;-78
2023/03/06 05:19:14;;;;;;;24.23;16.38;;;3.10;99.90;;;3.02;85.20;98693.97;4992106;28;20711;-78
2023/03/06 05:21:41;;;;;;;19.85;4.45;;;3.10;99.90;;;2.95;85.60;98700.00;4989718;28;20350;-78
2023/03/06 05:24:09;;;;;;;26.08;7.93;;;3.00;99.90;;;2.88;86.07;98699.91;4985787;28;20629;-78
2023/03/06 05:26:36;;;;;;;19.08;4.13;;;3.00;99.90;;;2.94;85.70;98703.47;4990482;28;20294;-79
2023/03/06 05:29:03;;;;;;;21.92;5.13;;;2.90;99.90;;;2.94;86.16;98712.19;4980781;28;20320;-77
2023/03/06 05:31:30;;;;;;;17.65;4.13;;;3.10;99.90;;;2.98;86.40;98723.53;4993100;28;20697;-79
2023/03/06 05:33:57;;;;;;;32.13;10.50;;;3.00;99.90;;;2.96;86.40;98723.50;4991597;28;20752;-79
2023/03/06 05:36:25;;;;;;;34.95;22.85;;;3.00;99.90;;;2.93;86.64;98725.22;5001345;28;20267;-79
2023/03/06 05:38:52;;;;;;;31.33;9.90;;;3.00;99.90;;;2.95;86.39;98724.38;4989821;28;20240;-79
2023/03/06 05:41:19;;;;;;;20.80;4.95;;;3.00;99.90;;;2.92;86.92;98732.16;4986833;28;20244;-78
2023/03/06 05:43:47;;;;;;;20.08;4.72;;;3.00;99.90;;;2.92;86.64;98731.28;4981549;28;20283;-79
2023/03/06 05:46:14;;;;;;;28.13;16.48;;;3.00;99.90;;;2.91;86.91;98737.38;4994017;28;20717;-79
2023/03/06 05:48:41;;;;;;;16.23;5.90;;;3.10;99.90;;;2.92;86.75;98740.00;5007040;28;20237;-78
2023/03/06 05:51:10;;;;;;;21.55;4.88;;;3.00;99.90;;;2.86;87.14;98745.16;4982990;28;20232;-78
2023/03/06 05:53:37;;;;;;;19.42;5.82;;;3.10;99.90;;;2.83;87.24;98742.50;4992727;28;20240;-78
2023/03/06 05:56:12;;;;;;;24.80;8.88;;;2.90;99.90;;;2.80;87.38;98747.69;4990232;28;20263;-79
2023/03/06 05:58:39;;;;;;;17.13;4.00;;;2.90;99.90;;;2.74;87.77;98758.91;4985817;28;20224;-79
2023/03/06 06:01:15;;;;;;;28.65;26.25;;;2.80;99.90;;;2.72;88.32;98765.84;4994112;28;20239;-80
2023/03/06 06:03:43;;;;;;;24.75;8.13;;;2.80;99.90;;;2.75;88.38;98771.09;4995342;28;20267;-80
2023/03/06 06:06:13;;;;;;;18.55;4.65;;;2.80;99.90;;;2.75;88.69;98770.22;4982304;28;20245;-80
2023/03/06 06:08:40;;;;;;;17.85;4.72;;;2.80;99.90;;;2.72;88.71;98778.91;4988173;28;20590;-79
2023/03/06 06:11:10;;;;;;;19.58;7.53;;;2.80;99.90;;;2.72;89.01;98786.72;4985013;28;20303;-80
2023/03/06 06:13:38;;;;;;;25.90;9.90;;;2.70;99.90;;;2.73;89.18;98795.44;4992571;28;20263;-79
2023/03/06 06:16:11;;;;;;;22.75;6.28;;;2.80;99.90;;;2.81;88.72;98799.91;4986542;28;20237;-82
2023/03/06 06:18:38;;;;;;;18.52;5.68;;;2.90;99.90;;;2.88;88.18;98799.13;4984948;28;20318;-80
2023/03/06 06:21:10;;;;;;;18.27;4.13;;;3.00;99.90;;;2.92;88.20;98802.66;4993067;28;20267;-81
2023/03/06 06:23:37;;;;;;;26.65;9.05;;;3.00;99.90;;;2.92;87.98;98801.78;4985135;28;20236;-79
2023/03/06 06:26:06;;;;;;;27.17;10.02;;;3.20;99.90;;;2.96;87.85;98801.84;4994050;28;20668;-81
2023/03/06 06:28:34;;;;;;;27.05;13.38;;;3.10;99.90;;;3.00;87.79;98802.75;4987595;28;20229;-80
2023/03/06 06:31:11;;;;;;;27.20;7.38;;;3.10;99.90;;;2.99;87.04;98794.03;4989710;28;20259;-79
2023/03/06 06:33:39;;;;;;;18.10;7.55;;;3.10;99.90;;;3.00;87.21;98801.03;5003964;28;20289;-79
2023/03/06 06:36:20;;;;;;;27.77;14.25;;;3.00;99.90;;;3.06;87.29;98805.44;4992538;28;20235;-78
2023/03/06 06:38:48;;;;;;;27.17;14.85;;;3.10;99.90;;;3.05;87.31;98819.34;4984738;28;20290;-79
2023/03/06 06:41:16;;;;;;;23.45;6.43;;;3.10;99.90;;;3.06;87.38;98818.50;4991715;28;20283;-79
2023/03/06 06:44:09;;;;;;;27.50;9.52;;;3.10;99.90;;;3.07;87.44;98820.25;4989550;28;20241;-80
2023/03/06 06:46:36;;;;;;;32.55;17.58;;;3.20;99.90;;;3.10;87.30;98834.22;4985705;28;20473;-80
2023/03/06 06:49:23;;;;;;;24.23;13.07;;;3.20;99.90;;;3.15;87.26;98823.84;4988788;28;20232;-80
2023/03/06 06:51:50;;;;;;;30.40;10.13;;;3.20;99.90;;;3.15;87.24;98831.69;4984109;28;20244;-80
2023/03/06 06:54:18;;;;;;;23.65;9.05;;;3.30;99.90;;;3.13;87.45;98836.88;4987916;28;20296;-80
2023/03/06 06:56:46;;;;;;;19.10;6.63;;;3.20;99.90;;;3.15;87.14;98837.78;4981315;28;20260;-80
2023/03/06 06:59:13;;;;;;;24.63;10.07;;;3.20;99.90;;;3.17;87.22;98838.69;4990370;28;20236;-80
2023/03/06 07:01:43;;;;;;;23.25;12.40;;;3.20;99.90;;;3.18;87.47;98847.38;4985020;28;20240;-80
2023/03/06 07:04:13;;;;;;;20.73;6.22;;;3.30;99.90;;;3.16;87.33;98851.72;4984761;28;20302;-81
2023/03/06 07:06:41;;;;;;;20.70;7.18;;;3.20;99.90;;;3.16;87.52;98864.78;4983430;28;20233;-79
2023/03/06 07:09:09;;;;;;;22.08;8.15;;;3.40;99.90;;;3.17;87.69;98863.91;4984970;28;20244;-78
2023/03/06 07:11:37;;;;;;;24.45;9.15;;;3.30;99.90;;;3.16;87.70;98865.66;4993528;28;20263;-80
2023/03/06 07:14:05;;;;;;;29.20;13.00;;;3.40;99.90;;;3.20;87.48;98862.22;4983838;28;20692;-81
2023/03/06 07:16:32;;;;;;;23.85;11.40;;;3.40;99.90;;;3.19;87.43;98868.31;4991396;28;20272;-80
2023/03/06 07:18:59;;;;;;;24.27;10.60;;;3.30;99.90;;;3.19;87.58;98876.13;4987196;28;20232;-80
2023/03/06 07:21:26;;;;;;;18.92;8.32;;;3.30;99.90;;;3.20;87.50;98871.78;4985564;28;20236;-80
2023/03/06 07:23:56;;;;;;;19.63;5.63;;;3.40;99.90;;;3.20;87.30;98877.91;4984375;28;20233;-79
2023/03/06 07:26:24;;;;;;;29.63;20.52;;;3.30;99.90;;;3.23;87.23;98882.28;4989293;28;20236;-79
2023/03/06 07:28:52;;;;;;;20.30;8.98;;;3.40;99.90;;;3.25;87.41;98882.31;4983511;28;20297;-80
2023/03/06 07:31:23;;;;;;;22.48;13.85;;;3.30;99.90;;;3.26;87.42;98886.66;4990500;28;20237;-80
2023/03/06 07:33:52;;;;;;;20.90;6.43;;;3.30;99.90;;;3.26;87.36;98884.94;4990782;28;20229;-80
2023/03/06 07:36:21;;;;;;;16.88;4.82;;;3.30;99.90;;;3.26;87.51;98884.94;4968182;28;20228;-81
2023/03/06 07:38:48;;;;;;;17.83;6.85;;;3.50;99.90;;;3.30;87.52;98889.34;4981890;28;20283;-79
2023/03/06 07:41:16;;;;;;;19.08;7.90;;;3.50;99.90;;;3.35;87.23;98890.28;4985080;28;20236;-80
2023/03/06 07:43:45;;;;;;;23.88;7.43;;;3.40;99.90;;;3.39;87.04;98891.19;4990762;28;20285;-80
2023/03/06 07:46:13;;;;;;;17.20;6.43;;;3.40;99.90;;;3.40;86.57;98882.50;4982592;28;20315;-80
2023/03/06 07:48:41;;;;;;;26.65;8.82;;;3.60;99.90;;;3.43;86.88;98891.25;4980555;28;20236;-79
2023/03/06 07:51:15;;;;;;;25.92;12.30;;;3.40;99.90;;;3.45;86.44;98892.16;4989499;28;20323;-79
2023/03/06 07:53:43;;;;;;;18.23;4.57;;;3.50;99.90;;;3.46;86.29;98885.19;4988969;28;20263;-79
2023/03/06 07:56:11;;;;;;;20.48;8.18;;;3.50;99.90;;;3.47;86.63;98895.66;4983676;28;20264;-79
2023/03/06 07:58:42;;;;;;;17.70;4.82;;;3.50;99.90;;;3.45;86.65;98902.59;4994747;28;20227;-78
2023/03/06 08:01:14;;;;;;;18.48;5.22;;;3.50;99.90;;;3.46;86.46;98914.81;4987338;28;20280;-79
2023/03/06 08:03:41;;;;;;;22.95;5.95;;;3.50;99.90;;;3.49;86.17;98904.41;4984933;28;20696;-78
2023/03/06 08:06:17;;;;;;;26.00;14.68;;;3.60;99.90;;;3.50;86.16;98913.13;4991872;28;20241;-80
2023/03/06 08:08:47;;;;;;;21.15;6.95;;;3.60;99.90;;;3.51;86.00;98913.13;4983247;28;20252;-80
2023/03/06 08:11:17;;;;;;;20.13;4.63;;;3.60;99.90;;;3.53;85.84;98910.53;4987835;28;20275;-83
2023/03/06 08:13:44;;;;;;;21.48;7.18;;;3.60;99.90;;;3.55;85.54;98911.44;4982431;28;20237;-81
2023/03/06 08:16:11;;;;;;;20.80;6.57;;;3.60;99.90;;;3.57;85.55;98908.84;4988210;28;20263;-78
2023/03/06 08:18:38;;;;;;;18.00;4.47;;;3.60;99.90;;;3.60;85.05;98903.66;4984550;28;20300;-79
2023/03/06 08:21:12;;;;;;;29.45;18.88;;;3.70;99.90;;;3.62;85.11;98908.03;4992476;28;20236;-80
2023/03/06 08:23:40;;;;;;;24.95;12.85;;;3.80;99.90;;;3.66;85.06;98908.94;4984389;28;20260;-79
2023/03/06 08:26:12;;;;;;;27.35;10.07;;;3.70;99.90;;;3.66;84.71;98902.00;4996054;28;20240;-80
2023/03/06 08:28:39;;;;;;;16.38;9.30;;;3.80;99.90;;;3.64;84.40;98889.75;4988634;28;20298;-79
2023/03/06 08:31:16;;;;;;;21.58;12.38;;;3.70;99.90;;;3.67;84.07;98895.03;4986635;28;20320;-79
2023/03/06 08:33:43;;;;;;;21.42;6.25;;;3.70;99.90;;;3.68;83.36;98881.09;4986407;28;20240;-79
2023/03/06 08:36:10;;;;;;;21.45;7.55;;;3.70;99.90;;;3.70;83.57;98871.53;4985869;28;20251;-79
2023/03/06 08:38:37;;;;;;;30.23;26.40;;;3.80;99.90;;;3.71;83.26;98865.44;4994416;28;20237;-79
2023/03/06 08:41:04;;;;;;;26.25;15.50;;;3.80;99.90;;;3.74;83.33;98865.47;4989594;28;20291;-79
2023/03/06 08:43:32;;;;;;;31.83;23.08;;;3.80;99.90;;;3.74;83.11;98868.97;4992550;28;20240;-80
2023/03/06 08:45:59;;;;;;;25.75;15.38;;;3.80;99.90;;;3.74;82.87;98860.25;4988409;28;20232;-79
2023/03/06 08:48:27;;;;;;;19.08;9.23;;;3.90;99.90;;;3.74;82.69;98861.13;4995594;28;20235;-80
2023/03/06 08:50:54;;;;;;;30.75;18.42;;;3.70;99.90;;;3.76;82.50;98858.53;4987375;28;20245;-80
2023/03/06 08:53:22;;;;;;;27.33;18.45;;;3.90;99.90;;;3.76;82.46;98855.91;4992239;28;20275;-80
2023/03/06 08:56:14;;;;;;;31.17;10.63;;;3.80;99.90;;;3.77;82.51;98861.16;4986210;28;20256;-80
2023/03/06 08:58:41;;;;;;;48.65;44.15;;;3.80;99.90;;;3.78;82.31;98864.66;4993117;28;20286;-79
2023/03/06 09:01:18;;;;;;;31.58;12.82;;;3.90;99.90;;;3.79;82.45;98869.03;4989077;28;20267;-79
2023/03/06 09:03:46;;;;;;;25.05;13.98;;;3.90;99.90;;;3.82;82.43;98866.44;4980522;28;20303;-79
2023/03/06 09:06:14;;;;;;;25.90;16.50;;;3.90;99.90;;;3.83;82.42;98876.03;4986025;28;20240;-77
2023/03/06 09:08:43;;;;;;;32.70;9.48;;;3.90;99.90;;;3.81;82.09;98865.56;4988384;28;20271;-79
2023/03/06 09:11:13;;;;;;;21.25;8.60;;;4.10;99.90;;;3.81;82.43;98868.19;4988993;28;20229;-80
2023/03/06 09:13:41;;;;;;;25.08;7.50;;;3.90;99.90;;;3.89;82.20;98878.72;4989301;28;20232;-80
2023/03/06 09:16:10;;;;;;;28.20;10.18;;;3.90;99.90;;;3.91;82.01;98873.53;4988647;28;20299;-80
2023/03/06 09:18:38;;;;;;;29.45;13.63;;;4.10;99.90;;;3.94;82.09;98879.69;4982304;28;20724;-80
2023/03/06 09:21:08;;;;;;;24.83;12.40;;;4.00;99.90;;;3.94;82.33;98876.19;4992530;28;20294;-80
2023/03/06 09:23:38;;;;;;;18.13;5.85;;;4.00;99.90;;;3.98;82.33;98877.97;4991795;28;20247;-76
2023/03/06 09:26:06;;;;;;;28.50;14.82;;;4.00;99.90;;;4.02;82.34;98898.06;4992948;28;20287;-83
2023/03/06 09:28:46;;;;;;;47.83;13.75;;;4.10;99.90;;;4.02;82.04;98895.44;4989595;28;20267;-84
2023/03/06 09:31:25;;;;;;;18.40;6.47;;;4.10;99.90;;;4.04;82.23;98893.72;4988054;28;20294;-83
2023/03/06 09:33:52;;;;;;;18.83;4.40;;;4.10;99.90;;;4.13;82.27;98910.38;4989124;28;20339;-82
2023/03/06 09:36:24;;;;;;;21.80;5.18;;;4.20;99.90;;;4.13;82.13;98905.16;4984516;28;20237;-84
2023/03/06 09:39:05;;;;;;;17.95;4.93;;;4.20;99.90;;;4.18;81.70;98905.19;4989762;28;20244;-84
2023/03/06 09:41:46;;;;;;;21.33;6.03;;;4.20;99.90;;;4.21;81.78;98886.03;4984271;28;20315;-83
2023/03/06 09:44:22;;;;;;;15.93;3.63;;;4.30;99.90;;;4.29;81.15;98887.88;5005852;28;20700;-82
2023/03/06 09:47:30;;;;;;;44.40;8.95;;;4.30;99.90;;;4.35;81.29;98889.66;4986283;28;20236;-85
2023/03/06 09:50:12;;;;;;;24.10;5.63;;;4.40;99.90;;;4.41;80.66;98869.66;4984124;28;20239;-85
2023/03/06 09:52:54;;;;;;;24.70;15.57;;;4.40;99.90;;;4.45;80.22;98858.34;4991501;28;20231;-82
2023/03/06 09:55:26;;;;;;;36.22;12.60;;;4.50;99.90;;;4.48;80.30;98858.38;4990785;28;20239;-82
2023/03/06 09:58:14;;;;;;;27.92;6.35;;;4.50;99.90;;;4.48;80.01;98837.44;4991031;28;20236;-79
2023/03/06 10:01:03;;;;;;;20.95;7.45;;;4.50;99.90;;;4.45;79.52;98826.06;4984543;28;20239;-85
2023/03/06 10:04:02;;;;;;;23.27;5.32;;;4.50;99.90;;;4.42;79.51;98815.56;4990819;28;20256;-83
2023/03/06 10:06:49;;;;;;;17.70;4.10;;;4.50;99.90;;;4.47;79.09;98816.47;4990775;28;20318;-81
2023/03/06 10:09:25;;;;;;;16.90;3.75;;;4.60;99.90;;;4.53;79.28;98813.03;4991432;28;20706;-82
2023/03/06 10:11:56;;;;;;;18.90;4.63;;;4.50;99.90;;;4.50;79.05;98816.50;4993119;28;20239;-82
2023/03/06 10:14:42;;;;;;;20.23;13.30;;;4.80;99.90;;;4.59;79.27;98836.63;4995091;28;20243;-81
2023/03/06 10:17:18;;;;;;;21.95;5.45;;;4.60;99.90;;;4.54;79.18;98830.50;4997356;28;20608;-82
2023/03/06 10:19:46;;;;;;;19.77;6.32;;;4.60;99.90;;;4.57;79.44;98838.38;4986665;28;20236;-82
2023/03/06 10:22:32;;;;;;;32.13;16.98;;;4.70;99.90;;;4.65;79.60;98844.53;4991436;28;20232;-81
2023/03/06 10:25:20;;;;;;;21.63;12.52;;;4.60;99.90;;;4.65;79.51;98848.03;4989800;28;20648;-80
2023/03/06 10:27:57;;;;;;;22.05;12.95;;;4.70;99.90;;;4.64;79.69;98855.88;4999422;28;20232;-82
2023/03/06 10:30:51;;;;;;;19.63;6.90;;;4.70;99.90;;;4.41;80.29;98868.78;4969945;28;20283;-81
2023/03/06 10:33:57;;;;;;;12.45;3.75;;;4.50;99.90;;;4.29;81.34;98906.19;4992465;28;20235;-85
2023/03/06 10:36:27;;;;;;;14.63;4.45;;;4.40;99.90;;;4.23;82.83;98936.66;5006034;28;20231;-82